Terminal Aerodrome Forecast
Issued by NWS Shreveport, LA

Home | Current Version | Previous Version | Text Only | Print | Product List | Glossary On
Versions: 1 2 3 4 5 6 7 8 9 10 11 12 13 14 15 16 17
765
FTUS44 KSHV 271457 AAA
TAFGGG
TAF AMD
KGGG 271457Z 2715/2812 10004KT 1SM BR VCSH OVC003
     FM271700 17010KT P6SM VCTS BKN025 OVC035CB
      TEMPO 2717/2721 VRB10KT 3SM TSRA BR BKN010 OVC020CB
     FM272100 16009KT P6SM VCTS BKN025 OVC035CB
     FM280000 15009KT P6SM BKN035 OVC050
     FM280600 18008KT P6SM OVC015=

USA.gov is the U.S. government's official web portal to all federal, state and local government web resources and services.